createdAt,value
2019-06-07T00:01:57.361Z,100575.12
2019-06-07T00:04:28.037Z,100571.58
2019-06-07T00:06:58.706Z,100572.90
2019-06-07T00:09:29.385Z,100567.86
2019-06-07T00:12:00.135Z,100566.99
2019-06-07T00:14:31.792Z,100560.91
2019-06-07T00:17:02.471Z,100560.91
2019-06-07T00:19:33.149Z,100556.26
2019-06-07T00:22:16.510Z,100554.70
2019-06-07T00:24:36.472Z,100558.98
2019-06-07T00:27:08.363Z,100554.89
2019-06-07T00:29:40.975Z,100557.36
2019-06-07T00:32:14.397Z,100557.05
2019-06-07T00:34:44.120Z,100561.70
2019-06-07T00:37:16.377Z,100563.17
2019-06-07T00:40:12.684Z,100562.43
2019-06-07T00:42:21.627Z,100564.15
2019-06-07T00:44:52.498Z,100555.70
2019-06-07T00:47:25.787Z,100553.30
2019-06-07T00:49:56.735Z,100545.23
2019-06-07T00:53:13.948Z,100544.77
2019-06-07T00:54:59.908Z,100555.69
2019-06-07T00:57:30.784Z,100550.72
2019-06-07T01:00:01.426Z,100555.34
2019-06-07T01:02:32.100Z,100552.15
2019-06-07T01:05:02.775Z,100555.38
2019-06-07T01:07:34.726Z,100562.45
2019-06-07T01:10:08.348Z,100565.68
2019-06-07T01:12:38.940Z,100563.43
2019-06-07T01:15:11.500Z,100558.30
2019-06-07T01:18:25.994Z,100558.59
2019-06-07T01:20:16.678Z,100563.46
2019-06-07T01:22:48.785Z,100563.62
2019-06-07T01:25:23.826Z,100562.52
2019-06-07T01:27:53.443Z,100568.16
2019-06-07T01:30:26.672Z,100569.89
2019-06-07T01:32:59.132Z,100572.34
2019-06-07T01:35:30.181Z,100575.06
2019-06-07T01:38:00.955Z,100580.19
2019-06-07T01:40:32.837Z,100589.19
2019-06-07T01:43:04.503Z,100600.13
2019-06-07T01:45:35.397Z,100600.89
2019-06-07T01:48:06.268Z,100601.63
2019-06-07T01:50:36.955Z,100597.02
2019-06-07T01:53:07.939Z,100592.09
2019-06-07T01:55:38.628Z,100586.05
2019-06-07T01:58:10.767Z,100593.20
2019-06-07T02:00:42.092Z,100595.95
2019-06-07T02:03:14.644Z,100600.52
2019-06-07T02:05:45.761Z,100609.64
2019-06-07T02:08:16.434Z,100614.38
2019-06-07T02:10:47.245Z,100616.44
2019-06-07T02:13:18.740Z,100624.56
2019-06-07T02:15:49.796Z,100618.00
2019-06-07T02:18:23.215Z,100619.16
2019-06-07T02:20:52.846Z,100622.38
2019-06-07T02:23:27.548Z,100623.82
2019-06-07T02:25:56.061Z,100624.86
2019-06-07T02:28:36.643Z,100622.27
2019-06-07T02:31:00.562Z,100623.78
2019-06-07T02:33:39.084Z,100627.25
2019-06-07T02:36:03.988Z,100626.53
2019-06-07T02:38:37.286Z,100625.44
2019-06-07T02:41:07.580Z,100625.56
2019-06-07T02:43:38.204Z,100621.15
2019-06-07T02:46:26.533Z,100622.30
2019-06-07T02:48:46.624Z,100629.49
2019-06-07T02:51:17.847Z,100626.38
2019-06-07T02:53:48.540Z,100628.79
2019-06-07T02:56:42.011Z,100629.47
2019-06-07T02:58:53.830Z,100638.23
2019-06-07T03:01:25.478Z,100651.14
2019-06-07T03:03:57.392Z,100654.84
2019-06-07T03:06:31.798Z,100654.92
2019-06-07T03:09:02.054Z,100651.24
2019-06-07T03:11:36.897Z,100658.73
2019-06-07T03:14:06.825Z,100662.67
2019-06-07T03:16:39.990Z,100661.61
2019-06-07T03:19:15.081Z,100661.16
2019-06-07T03:21:45.738Z,100671.17
2019-06-07T03:24:16.397Z,100681.13
2019-06-07T03:27:31.732Z,100684.76
2019-06-07T03:29:20.510Z,100694.23
2019-06-07T03:31:51.113Z,100690.01
2019-06-07T03:34:21.779Z,100692.73
2019-06-07T03:36:52.756Z,100695.88
2019-06-07T03:39:23.519Z,100696.23
2019-06-07T03:42:06.355Z,100700.86
2019-06-07T03:44:32.145Z,100697.08
2019-06-07T03:47:00.810Z,100701.05
2019-06-07T03:49:37.542Z,100696.89
2019-06-07T03:52:03.885Z,100693.09
2019-06-07T03:54:37.022Z,100697.66
2019-06-07T03:57:06.966Z,100695.42
2019-06-07T03:59:41.232Z,100693.31
2019-06-07T04:02:12.872Z,100689.63
2019-06-07T04:04:43.535Z,100690.84
2019-06-07T04:07:14.125Z,100688.73
2019-06-07T04:09:44.723Z,100694.69
2019-06-07T04:12:15.467Z,100694.69
2019-06-07T04:14:46.135Z,100694.96
2019-06-07T04:17:16.827Z,100696.34
2019-06-07T04:19:47.410Z,100700.66
2019-06-07T04:22:18.235Z,100693.14
2019-06-07T04:24:48.951Z,100693.94
2019-06-07T04:27:19.733Z,100700.03
2019-06-07T04:30:06.359Z,100696.91
2019-06-07T04:32:23.576Z,100693.97
2019-06-07T04:34:54.344Z,100702.46
2019-06-07T04:37:28.476Z,100704.38
2019-06-07T04:40:00.647Z,100711.16
2019-06-07T04:42:35.031Z,100715.26
2019-06-07T04:45:30.727Z,100707.25
2019-06-07T04:47:42.404Z,100706.77
2019-06-07T04:50:13.578Z,100706.77
2019-06-07T04:52:45.723Z,100716.60
2019-06-07T04:55:16.907Z,100707.50
2019-06-07T04:57:47.842Z,100707.77
2019-06-07T05:00:48.770Z,100704.03
2019-06-07T05:02:54.174Z,100721.67
2019-06-07T05:05:24.864Z,100719.77
2019-06-07T05:07:55.761Z,100713.13
2019-06-07T05:10:26.725Z,100709.44
2019-06-07T05:12:57.479Z,100714.20
2019-06-07T05:15:28.147Z,100722.20
2019-06-07T05:17:58.921Z,100715.27
2019-06-07T05:20:29.687Z,100716.45
2019-06-07T05:23:01.253Z,100721.71
2019-06-07T05:25:34.071Z,100723.66
2019-06-07T05:28:05.320Z,100720.15
2019-06-07T05:33:12.046Z,100716.13
2019-06-07T05:35:43.689Z,100719.61
2019-06-07T05:38:14.918Z,100724.42
2019-06-07T05:40:48.666Z,100722.52
2019-06-07T05:43:25.355Z,100739.65
2019-06-07T05:45:56.306Z,100739.65
2019-06-07T05:48:27.052Z,100738.59
2019-06-07T05:50:58.101Z,100742.69
2019-06-07T05:53:28.872Z,100744.56
2019-06-07T05:55:59.568Z,100745.45
2019-06-07T05:58:30.280Z,100750.14
2019-06-07T06:01:41.681Z,100750.14
2019-06-07T06:03:35.027Z,100760.83
2019-06-07T06:06:05.966Z,100753.34
2019-06-07T06:08:39.483Z,100761.49
2019-06-07T06:11:08.913Z,100761.49
2019-06-07T06:14:03.535Z,100758.93
2019-06-07T06:16:11.915Z,100771.09
2019-06-07T06:18:47.054Z,100771.09
2019-06-07T06:21:20.029Z,100783.72
2019-06-07T06:23:51.862Z,100790.16
2019-06-07T06:26:20.888Z,100791.10
2019-06-07T06:28:51.837Z,100785.92
2019-06-07T06:31:24.536Z,100785.92
2019-06-07T06:33:55.210Z,100798.94
2019-06-07T06:36:25.997Z,100804.03
2019-06-07T06:38:56.577Z,100806.48
2019-06-07T06:41:27.347Z,100806.87
2019-06-07T06:43:57.931Z,100815.33
2019-06-07T06:46:38.851Z,100824.02
2019-06-07T06:49:01.261Z,100823.80
2019-06-07T06:51:31.945Z,100829.63
2019-06-07T06:54:02.634Z,100833.54
2019-06-07T06:56:33.340Z,100830.98
2019-06-07T07:01:36.420Z,100831.82
2019-06-07T07:04:12.951Z,100829.72
2019-06-07T07:06:41.486Z,100837.09
2019-06-07T07:09:12.076Z,100834.45
2019-06-07T07:11:56.229Z,100838.05
2019-06-07T07:14:15.551Z,100842.81
2019-06-07T07:16:50.002Z,100844.80
2019-06-07T07:19:18.811Z,100850.87
2019-06-07T07:21:51.468Z,100855.23
2019-06-07T07:24:22.507Z,100854.37
2019-06-07T07:26:57.881Z,100859.61
2019-06-07T07:29:25.970Z,100866.77
2019-06-07T07:31:56.847Z,100866.28
2019-06-07T07:34:35.521Z,100875.70
2019-06-07T07:37:00.324Z,100872.23
2019-06-07T07:39:31.162Z,100875.50
2019-06-07T07:42:20.201Z,100871.98
2019-06-07T07:44:34.254Z,100878.52
2019-06-07T07:47:05.000Z,100868.27
2019-06-07T07:49:35.718Z,100871.30
2019-06-07T07:52:06.454Z,100871.47
2019-06-07T07:54:37.381Z,100874.44
2019-06-07T07:57:08.048Z,100866.73
2019-06-07T07:59:44.126Z,100858.85
2019-06-07T08:02:11.002Z,100859.54
2019-06-07T08:05:13.846Z,100865.70
2019-06-07T08:07:14.073Z,100866.16
2019-06-07T08:09:44.728Z,100866.30
2019-06-07T08:12:15.429Z,100865.45
2019-06-07T08:14:47.804Z,100870.11
2019-06-07T08:17:18.485Z,100860.28
2019-06-07T08:19:49.903Z,100867.21
2019-06-07T08:22:21.554Z,100860.46
2019-06-07T08:24:53.737Z,100863.39
2019-06-07T08:27:26.710Z,100867.41
2019-06-07T08:30:15.763Z,100869.05
2019-06-07T08:32:29.453Z,100868.33
2019-06-07T08:35:05.854Z,100868.42
2019-06-07T08:38:14.185Z,100874.95
2019-06-07T08:40:08.875Z,100869.51
2019-06-07T08:42:59.899Z,100864.13
2019-06-07T08:45:12.956Z,100864.97
2019-06-07T08:47:44.148Z,100867.87
2019-06-07T08:50:16.607Z,100872.87
2019-06-07T08:52:48.358Z,100880.81
2019-06-07T08:55:19.222Z,100877.33
2019-06-07T08:57:53.677Z,100880.80
2019-06-07T09:00:45.602Z,100875.78
2019-06-07T09:02:58.033Z,100877.54
2019-06-07T09:05:27.890Z,100881.80
2019-06-07T09:08:21.088Z,100885.83
2019-06-07T09:10:31.031Z,100890.94
2019-06-07T09:13:07.511Z,100886.91
2019-06-07T09:15:34.496Z,100894.57
2019-06-07T09:20:46.810Z,100886.86
2019-06-07T09:23:18.075Z,100884.17
2019-06-07T09:26:02.717Z,100885.53
2019-06-07T09:28:24.851Z,100883.05
2019-06-07T09:30:57.051Z,100874.90
2019-06-07T09:33:28.061Z,100879.78
2019-06-07T09:36:01.545Z,100872.48
2019-06-07T09:38:31.130Z,100885.59
2019-06-07T09:41:03.155Z,100876.42
2019-06-07T09:46:12.838Z,100887.27
2019-06-07T09:51:19.395Z,100884.19
2019-06-07T09:53:43.864Z,100881.62
2019-06-07T09:56:14.663Z,100887.06
2019-06-07T09:58:52.874Z,100886.23
2019-06-07T10:01:17.860Z,100893.27
2019-06-07T10:03:48.493Z,100885.09
2019-06-07T10:06:19.139Z,100899.31
2019-06-07T10:11:22.636Z,100901.92
2019-06-07T10:13:53.422Z,100895.98
2019-06-07T10:16:24.201Z,100897.51
2019-06-07T10:18:54.877Z,100898.45
2019-06-07T10:21:25.594Z,100903.90
2019-06-07T10:23:56.313Z,100903.79
2019-06-07T10:26:27.468Z,100900.84
2019-06-07T10:28:59.641Z,100903.33
2019-06-07T10:31:30.443Z,100905.41
2019-06-07T10:34:02.311Z,100909.86
2019-06-07T10:36:32.991Z,100908.27
2019-06-07T10:39:05.155Z,100902.44
2019-06-07T10:41:36.096Z,100906.61
2019-06-07T10:44:07.308Z,100905.22
2019-06-07T10:46:37.928Z,100899.69
2019-06-07T10:49:10.005Z,100898.33
2019-06-07T10:51:41.081Z,100896.22
2019-06-07T10:54:24.726Z,100895.36
2019-06-07T10:56:44.458Z,100891.14
2019-06-07T10:59:15.200Z,100890.63
2019-06-07T11:01:46.338Z,100894.53
2019-06-07T11:04:17.026Z,100882.41
2019-06-07T11:06:47.729Z,100885.28
2019-06-07T11:09:18.393Z,100885.87
2019-06-07T11:11:49.079Z,100883.39
2019-06-07T11:14:19.685Z,100880.33
2019-06-07T11:16:50.357Z,100883.12
2019-06-07T11:19:21.056Z,100883.44
2019-06-07T11:21:51.632Z,100874.45
2019-06-07T11:24:24.728Z,100876.34
2019-06-07T11:26:54.571Z,100875.56
2019-06-07T11:29:25.164Z,100869.78
2019-06-07T11:31:55.841Z,100871.81
2019-06-07T11:34:26.985Z,100874.34
2019-06-07T11:36:57.661Z,100867.94
2019-06-07T11:39:28.350Z,100860.53
2019-06-07T11:41:59.023Z,100864.73
2019-06-07T11:44:29.809Z,100867.42
2019-06-07T11:47:03.366Z,100870.81
2019-06-07T11:53:24.575Z,100865.45
2019-06-07T11:55:55.257Z,100864.44
2019-06-07T11:58:25.946Z,100862.86
2019-06-07T12:00:57.952Z,100866.98
2019-06-07T12:03:28.703Z,100870.86
2019-06-07T12:05:59.419Z,100863.95
2019-06-07T12:08:30.248Z,100861.37
2019-06-07T12:11:00.918Z,100864.02
2019-06-07T12:13:31.600Z,100867.53
2019-06-07T12:16:02.354Z,100863.70
2019-06-07T12:18:33.269Z,100860.66
2019-06-07T12:21:04.189Z,100864.02
2019-06-07T12:23:34.915Z,100859.84
2019-06-07T12:26:05.628Z,100861.45
2019-06-07T12:28:36.296Z,100858.30
2019-06-07T12:31:08.594Z,100857.48
2019-06-07T12:33:39.161Z,100851.91
2019-06-07T12:36:09.844Z,100852.50
2019-06-07T12:38:40.522Z,100844.73
2019-06-07T12:41:12.018Z,100853.84
2019-06-07T12:43:42.919Z,100850.79
2019-06-07T12:46:17.617Z,100844.02
2019-06-07T12:48:45.995Z,100847.92
2019-06-07T12:51:17.229Z,100846.90
2019-06-07T12:53:47.949Z,100841.75
2019-06-07T12:56:19.798Z,100846.77
2019-06-07T12:58:50.585Z,100842.85
2019-06-07T13:01:22.851Z,100841.50
2019-06-07T13:03:53.579Z,100840.08
2019-06-07T13:06:24.264Z,100842.09
2019-06-07T13:08:54.929Z,100843.28
2019-06-07T13:11:29.598Z,100840.78
2019-06-07T13:13:58.044Z,100832.81
2019-06-07T13:16:28.722Z,100830.95
2019-06-07T13:18:59.405Z,100830.33
2019-06-07T13:21:30.065Z,100832.06
2019-06-07T13:24:00.652Z,100820.23
2019-06-07T13:26:31.334Z,100823.46
2019-06-07T13:29:01.996Z,100822.47
2019-06-07T13:31:32.699Z,100814.56
2019-06-07T13:34:03.594Z,100815.40
2019-06-07T13:36:35.290Z,100810.91
2019-06-07T13:39:07.587Z,100813.18
2019-06-07T13:41:43.025Z,100818.50
2019-06-07T13:44:10.532Z,100816.56
2019-06-07T13:46:41.211Z,100810.20
2019-06-07T13:49:11.882Z,100810.69
2019-06-07T13:51:42.632Z,100807.52
2019-06-07T13:54:13.489Z,100811.20
2019-06-07T13:57:01.378Z,100806.43
2019-06-07T13:59:18.658Z,100812.16
2019-06-07T14:01:49.525Z,100810.63
2019-06-07T14:04:20.883Z,100801.12
2019-06-07T14:06:51.993Z,100805.84
2019-06-07T14:09:23.735Z,100803.06
2019-06-07T14:11:56.015Z,100804.01
2019-06-07T14:14:30.884Z,100803.48
2019-06-07T14:17:01.930Z,100802.06
2019-06-07T14:19:32.602Z,100794.67
2019-06-07T14:22:03.380Z,100798.68
2019-06-07T14:24:34.012Z,100799.89
2019-06-07T14:27:07.763Z,100791.35
2019-06-07T14:29:38.570Z,100787.89
2019-06-07T14:32:10.368Z,100786.80
2019-06-07T14:34:40.969Z,100790.77
2019-06-07T14:37:11.676Z,100791.42
2019-06-07T14:39:42.374Z,100794.92
2019-06-07T14:42:13.055Z,100793.95
2019-06-07T14:44:43.741Z,100787.94
2019-06-07T14:47:14.503Z,100789.33
2019-06-07T14:49:45.466Z,100798.03
2019-06-07T14:52:17.748Z,100797.73
2019-06-07T14:54:48.747Z,100791.32
2019-06-07T14:57:19.543Z,100791.42
2019-06-07T14:59:50.264Z,100794.41
2019-06-07T15:02:20.973Z,100799.08
2019-06-07T15:04:53.714Z,100799.20
2019-06-07T15:07:24.499Z,100799.52
2019-06-07T15:09:55.202Z,100796.97
2019-06-07T15:12:27.542Z,100803.50
2019-06-07T15:14:58.419Z,100800.89
2019-06-07T15:17:31.122Z,100806.98
2019-06-07T15:20:01.614Z,100797.52
2019-06-07T15:22:34.092Z,100807.37
2019-06-07T15:25:06.822Z,100799.22
2019-06-07T15:27:38.850Z,100802.70
2019-06-07T15:30:11.518Z,100799.03
2019-06-07T15:32:44.420Z,100803.31
2019-06-07T15:35:16.362Z,100802.03
2019-06-07T15:37:47.209Z,100807.98
2019-06-07T15:40:19.501Z,100802.42
2019-06-07T15:42:53.061Z,100805.39
2019-06-07T15:45:23.367Z,100803.45
2019-06-07T15:47:54.227Z,100802.77
2019-06-07T15:50:28.606Z,100802.58
2019-06-07T15:52:58.494Z,100807.14
2019-06-07T15:55:31.888Z,100796.81
2019-06-07T15:58:03.745Z,100798.83
2019-06-07T16:00:35.452Z,100802.64
2019-06-07T16:03:06.260Z,100802.23
2019-06-07T16:05:38.234Z,100796.15
2019-06-07T16:08:08.976Z,100796.92
2019-06-07T16:10:40.945Z,100795.71
2019-06-07T16:13:12.174Z,100799.92
2019-06-07T16:15:43.372Z,100797.39
2019-06-07T16:18:15.230Z,100797.17
2019-06-07T16:20:46.039Z,100798.75
2019-06-07T16:23:17.075Z,100799.00
2019-06-07T16:25:47.749Z,100798.85
2019-06-07T16:28:18.397Z,100793.77
2019-06-07T16:30:49.222Z,100797.64
2019-06-07T16:33:19.900Z,100791.20
2019-06-07T16:35:50.699Z,100788.01
2019-06-07T16:38:21.439Z,100789.77
2019-06-07T16:40:52.327Z,100791.59
2019-06-07T16:43:23.035Z,100788.27
2019-06-07T16:45:53.849Z,100779.24
2019-06-07T16:48:24.673Z,100776.03
2019-06-07T16:50:55.554Z,100775.99
2019-06-07T16:53:26.282Z,100769.37
2019-06-07T16:55:56.934Z,100770.62
2019-06-07T16:58:31.341Z,100773.18
2019-06-07T17:01:02.714Z,100770.11
2019-06-07T17:03:33.565Z,100771.12
2019-06-07T17:06:04.340Z,100758.37
2019-06-07T17:08:35.287Z,100759.53
2019-06-07T17:11:06.124Z,100763.75
2019-06-07T17:13:38.150Z,100757.97
2019-06-07T17:16:09.032Z,100753.94
2019-06-07T17:18:40.948Z,100754.16
2019-06-07T17:21:11.919Z,100758.00
2019-06-07T17:23:43.778Z,100757.16
2019-06-07T17:26:15.878Z,100758.52
2019-06-07T17:28:50.092Z,100747.25
2019-06-07T17:31:21.889Z,100746.63
2019-06-07T17:33:52.584Z,100743.55
2019-06-07T17:36:23.281Z,100742.67
2019-06-07T17:38:54.040Z,100744.75
2019-06-07T17:41:24.749Z,100743.31
2019-06-07T17:43:59.798Z,100744.05
2019-06-07T17:46:27.814Z,100742.62
2019-06-07T17:48:58.724Z,100748.97
2019-06-07T17:51:30.577Z,100754.23
2019-06-07T17:54:01.227Z,100744.80
2019-06-07T17:56:32.117Z,100747.25
2019-06-07T17:59:03.060Z,100745.77
2019-06-07T18:01:41.443Z,100757.27
2019-06-07T18:04:06.815Z,100753.30
2019-06-07T18:06:40.125Z,100761.13
2019-06-07T18:09:13.977Z,100760.00
2019-06-07T18:11:44.105Z,100762.69
2019-06-07T18:14:15.422Z,100764.50
2019-06-07T18:16:46.428Z,100771.59
2019-06-07T18:19:17.234Z,100770.02
2019-06-07T18:21:49.761Z,100771.70
2019-06-07T18:24:20.348Z,100772.49
2019-06-07T18:26:51.090Z,100772.95
2019-06-07T18:29:21.929Z,100781.97
2019-06-07T18:31:52.902Z,100781.97
2019-06-07T18:34:23.594Z,100779.65
2019-06-07T18:36:55.205Z,100780.76
2019-06-07T18:39:26.018Z,100784.08
2019-06-07T18:41:56.777Z,100780.61
2019-06-07T18:44:27.302Z,100776.14
2019-06-07T18:46:58.499Z,100768.86
2019-06-07T18:49:29.311Z,100775.85
2019-06-07T18:52:14.635Z,100775.38
2019-06-07T18:54:46.680Z,100765.77
2019-06-07T18:57:17.782Z,100767.65
2019-06-07T18:59:48.601Z,100771.47
2019-06-07T19:02:19.315Z,100777.02
2019-06-07T19:04:50.603Z,100780.31
2019-06-07T19:07:24.090Z,100782.13
2019-06-07T19:09:55.023Z,100776.61
2019-06-07T19:12:26.709Z,100781.30
2019-06-07T19:14:57.640Z,100790.02
2019-06-07T19:17:28.437Z,100793.84
2019-06-07T19:20:00.509Z,100794.39
2019-06-07T19:22:36.343Z,100801.12
2019-06-07T19:25:07.663Z,100805.81
2019-06-07T19:27:38.421Z,100813.51
2019-06-07T19:30:10.135Z,100820.52
2019-06-07T19:32:40.902Z,100826.67
2019-06-07T19:35:13.504Z,100829.15
2019-06-07T19:37:44.373Z,100832.45
2019-06-07T19:40:15.550Z,100826.70
2019-06-07T19:42:47.939Z,100833.30
2019-06-07T19:45:34.744Z,100836.83
2019-06-07T19:47:52.401Z,100844.05
2019-06-07T19:50:23.432Z,100843.20
2019-06-07T19:52:54.987Z,100839.39
2019-06-07T19:55:26.691Z,100848.38
2019-06-07T19:57:57.541Z,100845.00
2019-06-07T20:00:28.438Z,100839.70
2019-06-07T20:02:59.956Z,100832.95
2019-06-07T20:05:34.092Z,100835.93
2019-06-07T20:08:06.358Z,100833.36
2019-06-07T20:10:37.207Z,100829.62
2019-06-07T20:13:07.902Z,100832.93
2019-06-07T20:15:38.687Z,100835.57
2019-06-07T20:18:09.525Z,100825.64
2019-06-07T20:20:40.912Z,100827.47
2019-06-07T20:23:11.787Z,100823.95
2019-06-07T20:25:42.561Z,100829.30
2019-06-07T20:28:13.395Z,100830.05
2019-06-07T20:30:44.061Z,100833.33
2019-06-07T20:33:14.953Z,100831.20
2019-06-07T20:35:45.715Z,100834.81
2019-06-07T20:38:16.414Z,100834.45
2019-06-07T20:40:47.215Z,100829.06
2019-06-07T20:43:19.304Z,100825.55
2019-06-07T20:45:50.757Z,100834.16
2019-06-07T20:48:23.147Z,100825.08
2019-06-07T20:50:53.946Z,100828.94
2019-06-07T20:53:25.521Z,100831.34
2019-06-07T20:55:58.491Z,100830.06
2019-06-07T20:58:32.545Z,100832.19
2019-06-07T21:01:04.744Z,100822.14
2019-06-07T21:03:35.821Z,100819.87
2019-06-07T21:06:08.336Z,100818.84
2019-06-07T21:08:39.541Z,100818.16
2019-06-07T21:11:11.149Z,100817.16
2019-06-07T21:13:42.246Z,100809.16
2019-06-07T21:16:16.109Z,100808.30
2019-06-07T21:18:47.346Z,100814.23
2019-06-07T21:21:19.019Z,100799.63
2019-06-07T21:23:49.976Z,100797.62
2019-06-07T21:26:21.708Z,100800.45
2019-06-07T21:28:54.049Z,100800.45
2019-06-07T21:31:25.034Z,100805.02
2019-06-07T21:33:57.135Z,100797.27
2019-06-07T21:36:28.196Z,100797.17
2019-06-07T21:38:59.137Z,100788.92
2019-06-07T21:41:31.780Z,100788.92
2019-06-07T21:44:02.550Z,100782.59
2019-06-07T21:46:34.026Z,100783.63
2019-06-07T21:49:06.432Z,100787.18
2019-06-07T21:51:37.211Z,100787.18
2019-06-07T21:54:11.097Z,100794.78
2019-06-07T21:56:40.201Z,100795.33
2019-06-07T21:59:11.201Z,100787.70
2019-06-07T22:01:42.121Z,100777.80
2019-06-07T22:04:13.728Z,100769.69
2019-06-07T22:06:44.514Z,100774.56
2019-06-07T22:09:15.255Z,100773.53
2019-06-07T22:11:45.928Z,100773.63
2019-06-07T22:14:16.512Z,100780.41
2019-06-07T22:16:47.191Z,100780.41
2019-06-07T22:19:17.795Z,100779.26
2019-06-07T22:22:01.650Z,100779.26
2019-06-07T22:24:20.952Z,100784.66
2019-06-07T22:26:51.638Z,100781.92
2019-06-07T22:29:22.303Z,100776.93
2019-06-07T22:31:52.986Z,100772.91
2019-06-07T22:34:23.681Z,100769.41
2019-06-07T22:36:54.301Z,100769.86
2019-06-07T22:39:24.876Z,100776.08
2019-06-07T22:41:55.668Z,100778.94
2019-06-07T22:44:26.347Z,100775.34
2019-06-07T22:46:57.116Z,100769.52
2019-06-07T22:49:27.826Z,100766.77
2019-06-07T22:52:08.270Z,100769.20
2019-06-07T22:54:31.954Z,100778.09
2019-06-07T22:57:04.390Z,100777.45
2019-06-07T22:59:37.815Z,100777.38
2019-06-07T23:02:08.506Z,100766.27
2019-06-07T23:04:39.348Z,100768.47
2019-06-07T23:07:10.831Z,100760.73
2019-06-07T23:09:41.995Z,100760.84
2019-06-07T23:12:13.155Z,100761.38
2019-06-07T23:14:43.947Z,100763.48
2019-06-07T23:17:15.738Z,100754.81
2019-06-07T23:19:46.693Z,100759.05
2019-06-07T23:22:17.952Z,100762.75
2019-06-07T23:24:48.641Z,100759.98
2019-06-07T23:27:20.651Z,100760.33
2019-06-07T23:29:51.523Z,100755.44
2019-06-07T23:32:22.210Z,100757.67
2019-06-07T23:34:52.903Z,100765.39
2019-06-07T23:37:24.524Z,100765.28
2019-06-07T23:39:55.218Z,100758.95
2019-06-07T23:42:26.744Z,100762.22
2019-06-07T23:44:57.616Z,100763.06
2019-06-07T23:47:28.293Z,100763.70
2019-06-07T23:49:58.977Z,100766.45
2019-06-07T23:52:29.681Z,100775.97
2019-06-07T23:55:00.369Z,100777.03
2019-06-07T23:57:31.258Z,100777.56
